ETD379 OMAA-VRMM
Flight info
| Callsign | ETD379 |
|---|---|
| Flight time | N/A |
| Altitude | 39000 |
| Route | KANIP N318 TOLDA P570 KITAL L894 ELBET ELBET1AXBENKUXILSXX/36 |
| Aircraft | B789/H-SDE1E2E3FGHIJ2J3J4J5M1RWXY/LB1D1 |
Departure
| Time | N/A |
|---|---|
| Airport | Zayed International Airport (OMAA) |
Arrival
| Time | 2026-05-09 02:58 |
|---|---|
| Airport | Velana International Airport (VRMM) |
| Time | Latitude | Longitude | Altitude | Speed | Heading |
|---|---|---|---|---|---|
| 2026-05-09 02:28 | 6.15342 | 71.96698 | 32895 ft | 450 kts | 152° |
| 2026-05-09 02:29 | 6.09660 | 71.99648 | 32899 ft | 465 kts | 151° |
| 2026-05-09 02:29 | 6.03885 | 72.02606 | 32884 ft | 466 kts | 151° |
| 2026-05-09 02:30 | 5.98122 | 72.05569 | 32885 ft | 465 kts | 151° |
| 2026-05-09 02:30 | 5.92362 | 72.08530 | 32878 ft | 465 kts | 151° |
| 2026-05-09 02:31 | 5.86611 | 72.11517 | 32886 ft | 464 kts | 148° |
| 2026-05-09 02:31 | 5.80952 | 72.14676 | 32880 ft | 466 kts | 150° |
| 2026-05-09 02:32 | 5.75305 | 72.17767 | 32890 ft | 466 kts | 149° |
| 2026-05-09 02:32 | 5.69671 | 72.20990 | 32881 ft | 467 kts | 149° |
| 2026-05-09 02:33 | 5.63976 | 72.24127 | 32882 ft | 466 kts | 149° |
| 2026-05-09 02:33 | 5.58308 | 72.27301 | 32885 ft | 466 kts | 149° |
| 2026-05-09 02:34 | 5.52635 | 72.30457 | 32881 ft | 466 kts | 149° |
| 2026-05-09 02:34 | 5.46978 | 72.33608 | 32879 ft | 464 kts | 149° |
| 2026-05-09 02:35 | 5.41333 | 72.36753 | 32880 ft | 464 kts | 149° |
| 2026-05-09 02:35 | 5.35693 | 72.39893 | 32876 ft | 464 kts | 149° |
| 2026-05-09 02:36 | 5.30043 | 72.43039 | 32882 ft | 465 kts | 149° |
| 2026-05-09 02:36 | 5.24392 | 72.46183 | 32880 ft | 464 kts | 149° |
| 2026-05-09 02:37 | 5.18720 | 72.49341 | 32882 ft | 477 kts | 149° |
| 2026-05-09 02:37 | 5.12830 | 72.52617 | 32889 ft | 491 kts | 149° |
| 2026-05-09 02:38 | 5.06789 | 72.55977 | 32893 ft | 500 kts | 149° |
| 2026-05-09 02:38 | 5.00686 | 72.59370 | 32891 ft | 503 kts | 149° |
| 2026-05-09 02:39 | 4.94561 | 72.62776 | 32888 ft | 503 kts | 149° |
| 2026-05-09 02:39 | 4.88435 | 72.66180 | 32884 ft | 503 kts | 149° |
| 2026-05-09 02:40 | 4.82314 | 72.69583 | 32888 ft | 503 kts | 149° |
| 2026-05-09 02:40 | 4.76188 | 72.72986 | 32883 ft | 504 kts | 149° |
| 2026-05-09 02:41 | 4.70080 | 72.76378 | 32151 ft | 500 kts | 149° |
| 2026-05-09 02:41 | 4.67017 | 72.78081 | 31120 ft | 504 kts | 149° |
| 2026-05-09 02:41 | 4.63954 | 72.79782 | 30210 ft | 504 kts | 149° |
| 2026-05-09 02:41 | 4.60888 | 72.81484 | 29240 ft | 503 kts | 150° |
| 2026-05-09 02:42 | 4.57839 | 72.83177 | 28335 ft | 500 kts | 150° |
| 2026-05-09 02:42 | 4.54808 | 72.84859 | 27429 ft | 496 kts | 150° |
| 2026-05-09 02:42 | 4.51797 | 72.86531 | 26565 ft | 494 kts | 150° |
| 2026-05-09 02:42 | 4.48802 | 72.88195 | 25686 ft | 491 kts | 150° |
| 2026-05-09 02:43 | 4.45827 | 72.89845 | 25039 ft | 484 kts | 150° |
| 2026-05-09 02:43 | 4.42935 | 72.91450 | 24885 ft | 466 kts | 150° |
| 2026-05-09 02:43 | 4.40129 | 72.93006 | 24883 ft | 460 kts | 150° |
| 2026-05-09 02:43 | 4.37322 | 72.94565 | 24023 ft | 465 kts | 150° |
| 2026-05-09 02:44 | 4.34488 | 72.96138 | 23269 ft | 464 kts | 151° |
| 2026-05-09 02:44 | 4.31682 | 72.97694 | 22483 ft | 458 kts | 151° |
| 2026-05-09 02:44 | 4.28931 | 72.99220 | 21443 ft | 439 kts | 151° |
| 2026-05-09 02:44 | 4.26207 | 73.00732 | 20678 ft | 438 kts | 151° |
| 2026-05-09 02:45 | 4.23662 | 73.02143 | 19931 ft | 403 kts | 151° |
| 2026-05-09 02:45 | 4.21286 | 73.03461 | 19196 ft | 377 kts | 151° |
| 2026-05-09 02:45 | 4.19071 | 73.04689 | 18556 ft | 367 kts | 151° |
| 2026-05-09 02:45 | 4.16772 | 73.05964 | 17551 ft | 381 kts | 151° |
| 2026-05-09 02:46 | 4.14472 | 73.07239 | 17034 ft | 376 kts | 151° |
| 2026-05-09 02:46 | 4.12186 | 73.08508 | 16407 ft | 375 kts | 151° |
| 2026-05-09 02:46 | 4.09952 | 73.09746 | 15203 ft | 363 kts | 152° |
| 2026-05-09 02:46 | 4.07860 | 73.10906 | 13871 ft | 364 kts | 152° |
| 2026-05-09 02:47 | 4.05707 | 73.12099 | 12554 ft | 357 kts | 152° |
| 2026-05-09 02:47 | 4.03588 | 73.13274 | 12320 ft | 341 kts | 152° |
| 2026-05-09 02:47 | 4.01535 | 73.14412 | 11929 ft | 334 kts | 152° |
| 2026-05-09 02:47 | 3.99523 | 73.15527 | 11503 ft | 328 kts | 152° |
| 2026-05-09 02:48 | 3.97548 | 73.16634 | 11097 ft | 322 kts | 149° |
| 2026-05-09 02:48 | 3.95925 | 73.18121 | 10699 ft | 315 kts | 124° |
| 2026-05-09 02:48 | 3.95028 | 73.20073 | 10432 ft | 306 kts | 102° |
| 2026-05-09 02:48 | 3.94868 | 73.22187 | 10085 ft | 305 kts | 88° |
| 2026-05-09 02:49 | 3.94859 | 73.24306 | 9686 ft | 303 kts | 89° |
| 2026-05-09 02:49 | 3.94858 | 73.26397 | 9266 ft | 298 kts | 89° |
| 2026-05-09 02:49 | 3.94860 | 73.28419 | 8932 ft | 284 kts | 88° |
| 2026-05-09 02:49 | 3.94861 | 73.30356 | 8589 ft | 274 kts | 88° |
| 2026-05-09 02:50 | 3.94866 | 73.32271 | 8193 ft | 275 kts | 88° |
| 2026-05-09 02:50 | 3.94872 | 73.34167 | 7832 ft | 271 kts | 88° |
| 2026-05-09 02:50 | 3.94877 | 73.36050 | 7494 ft | 270 kts | 89° |
| 2026-05-09 02:50 | 3.94881 | 73.37924 | 7152 ft | 269 kts | 89° |
| 2026-05-09 02:51 | 3.94885 | 73.39787 | 6806 ft | 267 kts | 89° |
| 2026-05-09 02:51 | 3.94889 | 73.41648 | 6463 ft | 266 kts | 89° |
| 2026-05-09 02:51 | 3.94891 | 73.43465 | 6151 ft | 257 kts | 89° |
| 2026-05-09 02:51 | 3.94891 | 73.45222 | 5813 ft | 249 kts | 89° |
| 2026-05-09 02:52 | 3.94892 | 73.46948 | 5489 ft | 246 kts | 88° |
| 2026-05-09 02:52 | 3.94894 | 73.48648 | 5171 ft | 244 kts | 89° |
| 2026-05-09 02:52 | 3.94918 | 73.50339 | 4849 ft | 242 kts | 84° |
| 2026-05-09 02:52 | 3.95506 | 73.51874 | 4488 ft | 236 kts | 51° |
| 2026-05-09 02:53 | 3.96760 | 73.52856 | 4147 ft | 228 kts | 18° |
| 2026-05-09 02:53 | 3.98307 | 73.53102 | 3774 ft | 222 kts | 359° |
| 2026-05-09 02:53 | 3.99831 | 73.53119 | 3479 ft | 217 kts | 356° |
| 2026-05-09 02:53 | 4.01335 | 73.53120 | 3218 ft | 215 kts | 356° |
| 2026-05-09 02:54 | 4.02829 | 73.53119 | 2935 ft | 215 kts | 356° |
| 2026-05-09 02:54 | 4.04306 | 73.53118 | 2664 ft | 209 kts | 356° |
| 2026-05-09 02:54 | 4.05731 | 73.53119 | 2401 ft | 200 kts | 356° |
| 2026-05-09 02:54 | 4.07098 | 73.53120 | 2150 ft | 191 kts | 356° |
| 2026-05-09 02:55 | 4.08369 | 73.53120 | 1899 ft | 175 kts | 355° |
| 2026-05-09 02:55 | 4.09604 | 73.53109 | 1665 ft | 178 kts | 355° |
| 2026-05-09 02:55 | 4.10805 | 73.53108 | 1456 ft | 171 kts | 355° |
| 2026-05-09 02:55 | 4.11991 | 73.53108 | 1234 ft | 167 kts | 355° |
| 2026-05-09 02:56 | 4.13102 | 73.53111 | 1028 ft | 155 kts | 355° |
| 2026-05-09 02:56 | 4.14169 | 73.53108 | 860 ft | 152 kts | 360° |
| 2026-05-09 02:56 | 4.15263 | 73.53122 | 675 ft | 163 kts | 356° |
| 2026-05-09 02:56 | 4.16379 | 73.53123 | 467 ft | 159 kts | 354° |
| 2026-05-09 02:57 | 4.17461 | 73.53114 | 242 ft | 154 kts | 354° |
| 2026-05-09 02:57 | 4.18521 | 73.53111 | 40 ft | 151 kts | 354° |
| 2026-05-09 02:57 | 4.19431 | 73.53104 | 22 ft | 108 kts | 0° |
| 2026-05-09 02:57 | 4.20040 | 73.53105 | 17 ft | 66 kts | 360° |
| 2026-05-09 02:58 | 4.20333 | 73.53103 | 20 ft | 17 kts | 348° |
| 2026-05-09 02:58 | 4.20368 | 73.53028 | 20 ft | 14 kts | 266° |
| 2026-05-09 02:58 | 4.20364 | 73.52929 | 19 ft | 12 kts | 263° |
| 2026-05-09 02:58 | 4.20321 | 73.52898 | 19 ft | 7 kts | 187° |
| 2026-05-09 02:59 | 4.20268 | 73.52898 | 19 ft | 8 kts | 179° |
| 2026-05-09 02:59 | 4.20206 | 73.52899 | 19 ft | 10 kts | 179° |
| 2026-05-09 02:59 | 4.20134 | 73.52900 | 19 ft | 11 kts | 179° |
| 2026-05-09 02:59 | 4.20054 | 73.52902 | 19 ft | 12 kts | 179° |
| 2026-05-09 03:00 | 4.19966 | 73.52904 | 18 ft | 14 kts | 179° |
| 2026-05-09 03:00 | 4.19866 | 73.52905 | 19 ft | 15 kts | 179° |
| 2026-05-09 03:00 | 4.19752 | 73.52905 | 19 ft | 17 kts | 180° |
| 2026-05-09 03:00 | 4.19626 | 73.52907 | 20 ft | 19 kts | 178° |
| 2026-05-09 03:01 | 4.19489 | 73.52910 | 19 ft | 20 kts | 179° |
| 2026-05-09 03:01 | 4.19342 | 73.52913 | 19 ft | 22 kts | 179° |
| 2026-05-09 03:01 | 4.19185 | 73.52915 | 20 ft | 23 kts | 179° |
| 2026-05-09 03:01 | 4.19021 | 73.52918 | 20 ft | 24 kts | 179° |
| 2026-05-09 03:02 | 4.18847 | 73.52921 | 21 ft | 25 kts | 179° |
| 2026-05-09 03:02 | 4.18667 | 73.52923 | 19 ft | 26 kts | 179° |
| 2026-05-09 03:02 | 4.18486 | 73.52927 | 19 ft | 26 kts | 179° |
| 2026-05-09 03:02 | 4.18305 | 73.52931 | 19 ft | 26 kts | 179° |
| 2026-05-09 03:03 | 4.18168 | 73.52931 | 19 ft | 11 kts | 179° |
| 2026-05-09 03:03 | 4.18131 | 73.52922 | 20 ft | 4 kts | 220° |
| 2026-05-09 03:03 | 4.18126 | 73.52911 | 19 ft | 2 kts | 252° |
| 2026-05-09 03:03 | 4.18128 | 73.52888 | 19 ft | 5 kts | 278° |
| 2026-05-09 03:04 | 4.18133 | 73.52838 | 19 ft | 8 kts | 267° |
| 2026-05-09 03:04 | 4.18131 | 73.52798 | 19 ft | 3 kts | 268° |
| 2026-05-09 03:04 | 4.18131 | 73.52786 | 19 ft | 1 kts | 268° |
| 2026-05-09 03:04 | 4.18131 | 73.52781 | 19 ft | 0 kts | 268° |